createdAt,value
2023-02-02T00:01:34.595Z,3.07
2023-02-02T00:04:01.527Z,3.67
2023-02-02T00:06:30.578Z,3.00
2023-02-02T00:09:00.369Z,2.73
2023-02-02T00:11:28.351Z,3.10
2023-02-02T00:13:55.540Z,3.57
2023-02-02T00:16:31.427Z,2.47
2023-02-02T00:19:02.934Z,2.33
2023-02-02T00:21:29.928Z,3.00
2023-02-02T00:23:56.936Z,2.23
2023-02-02T00:26:24.237Z,2.57
2023-02-02T00:28:51.064Z,2.27
2023-02-02T00:31:17.848Z,2.67
2023-02-02T00:33:50.040Z,2.47
2023-02-02T00:36:18.172Z,2.33
2023-02-02T00:38:46.316Z,2.40
2023-02-02T00:41:13.192Z,3.47
2023-02-02T00:43:39.969Z,2.30
2023-02-02T00:46:14.430Z,2.53
2023-02-02T00:48:41.141Z,1.97
2023-02-02T00:51:07.915Z,3.17
2023-02-02T00:53:34.857Z,4.07
2023-02-02T00:56:01.661Z,2.73
2023-02-02T00:58:28.366Z,5.23
2023-02-02T01:00:55.193Z,3.00
2023-02-02T01:03:21.949Z,3.60
2023-02-02T01:05:50.134Z,3.33
2023-02-02T01:08:16.883Z,3.47
2023-02-02T01:10:43.623Z,3.43
2023-02-02T01:13:10.382Z,4.27
2023-02-02T01:15:37.648Z,7.23
2023-02-02T01:18:04.610Z,3.27
2023-02-02T01:20:32.307Z,6.23
2023-02-02T01:22:59.121Z,3.80
2023-02-02T01:25:27.386Z,5.60
2023-02-02T01:27:54.137Z,5.47
2023-02-02T01:30:21.014Z,6.67
2023-02-02T01:32:48.078Z,5.50
2023-02-02T01:35:15.214Z,6.83
2023-02-02T01:37:42.029Z,7.80
2023-02-02T01:40:10.643Z,11.80
2023-02-02T01:42:37.588Z,13.40
2023-02-02T01:45:14.581Z,12.03
2023-02-02T01:47:58.546Z,17.33
2023-02-02T01:50:34.754Z,14.30
2023-02-02T01:53:05.085Z,20.20
2023-02-02T01:55:35.782Z,24.57
2023-02-02T01:58:19.445Z,17.87
2023-02-02T02:00:47.140Z,14.77
2023-02-02T02:03:18.731Z,13.20
2023-02-02T02:05:53.415Z,12.97
2023-02-02T02:08:26.807Z,10.47
2023-02-02T02:10:53.678Z,10.60
2023-02-02T02:13:44.815Z,8.57
2023-02-02T02:16:37.439Z,8.43
2023-02-02T02:19:58.003Z,8.13
2023-02-02T02:23:02.972Z,5.67
2023-02-02T02:26:33.943Z,5.63
2023-02-02T02:29:03.414Z,4.10
2023-02-02T02:32:06.899Z,4.77
2023-02-02T02:34:54.910Z,5.53
2023-02-02T02:37:53.770Z,4.80
2023-02-02T02:40:37.893Z,5.43
2023-02-02T02:43:32.944Z,6.90
2023-02-02T02:46:00.471Z,7.03
2023-02-02T02:48:29.331Z,6.33
2023-02-02T02:51:40.803Z,4.57
2023-02-02T02:54:08.081Z,5.60
2023-02-02T02:57:22.453Z,7.90
2023-02-02T03:00:21.341Z,6.90
2023-02-02T03:03:41.895Z,7.67
2023-02-02T03:06:34.704Z,8.80
2023-02-02T03:09:10.367Z,8.47
2023-02-02T03:11:37.487Z,11.10
2023-02-02T03:14:09.388Z,11.27
2023-02-02T03:16:37.528Z,17.50
2023-02-02T03:19:06.404Z,13.50
2023-02-02T03:21:34.658Z,15.97
2023-02-02T03:24:01.733Z,15.03
2023-02-02T03:26:29.127Z,19.27
2023-02-02T03:28:59.744Z,26.93
2023-02-02T03:31:28.466Z,14.83
2023-02-02T03:33:56.473Z,24.03
2023-02-02T03:36:23.507Z,18.83
2023-02-02T03:38:50.302Z,23.47
2023-02-02T03:41:17.057Z,19.43
2023-02-02T03:43:43.877Z,18.93
2023-02-02T03:46:10.963Z,21.00
2023-02-02T03:48:39.024Z,17.90
2023-02-02T03:51:14.339Z,13.73
2023-02-02T03:53:47.577Z,13.00
2023-02-02T03:56:15.478Z,15.57
2023-02-02T03:58:42.415Z,10.63
2023-02-02T04:01:13.382Z,11.23
2023-02-02T04:03:40.290Z,12.13
2023-02-02T04:06:07.178Z,9.03
2023-02-02T04:08:34.158Z,9.70
2023-02-02T04:11:01.293Z,11.93
2023-02-02T04:13:28.141Z,12.80
2023-02-02T04:16:01.550Z,10.30
2023-02-02T04:18:28.878Z,12.50
2023-02-02T04:21:00.576Z,14.27
2023-02-02T04:23:29.039Z,18.27
2023-02-02T04:25:55.898Z,13.83
2023-02-02T04:28:23.853Z,22.20
2023-02-02T04:30:51.944Z,23.50
2023-02-02T04:33:19.635Z,17.17
2023-02-02T04:35:46.416Z,17.60
2023-02-02T04:38:13.823Z,21.13
2023-02-02T04:40:47.038Z,25.43
2023-02-02T04:43:14.823Z,16.57
2023-02-02T04:45:42.345Z,26.53
2023-02-02T04:48:09.911Z,27.33
2023-02-02T04:50:36.949Z,28.60
2023-02-02T04:53:04.984Z,32.63
2023-02-02T04:55:35.552Z,31.50
2023-02-02T04:58:02.312Z,33.47
2023-02-02T05:00:29.133Z,16.93
2023-02-02T05:02:55.850Z,27.83
2023-02-02T05:05:22.973Z,25.93
2023-02-02T05:07:50.125Z,17.43
2023-02-02T05:10:17.316Z,10.53
2023-02-02T05:12:44.073Z,24.30
2023-02-02T05:15:11.404Z,21.03
2023-02-02T05:17:38.163Z,20.37
2023-02-02T05:20:05.344Z,22.07
2023-02-02T05:22:32.129Z,25.63
2023-02-02T05:24:58.879Z,14.40
2023-02-02T05:27:25.582Z,19.50
2023-02-02T05:29:52.353Z,22.87
2023-02-02T05:32:19.124Z,19.70
2023-02-02T05:34:45.915Z,25.73
2023-02-02T05:37:12.743Z,26.80
2023-02-02T05:39:39.557Z,25.40
2023-02-02T05:42:06.283Z,23.77
2023-02-02T05:44:33.133Z,19.60
2023-02-02T05:47:00.040Z,26.90
2023-02-02T05:49:26.965Z,26.60
2023-02-02T05:51:57.485Z,22.37
2023-02-02T05:54:24.968Z,18.97
2023-02-02T05:56:54.542Z,24.00
2023-02-02T05:59:21.943Z,13.23
2023-02-02T06:01:49.345Z,14.13
2023-02-02T06:04:16.509Z,17.87
2023-02-02T06:06:44.280Z,18.70
2023-02-02T06:09:11.342Z,22.33
2023-02-02T06:11:39.423Z,19.27
2023-02-02T06:14:06.717Z,18.90
2023-02-02T06:16:33.591Z,18.37
2023-02-02T06:19:00.420Z,19.10
2023-02-02T06:21:31.014Z,18.90
2023-02-02T06:23:59.385Z,14.90
2023-02-02T06:26:26.821Z,13.33
2023-02-02T06:28:55.228Z,17.53
2023-02-02T06:31:23.067Z,18.77
2023-02-02T06:33:58.671Z,26.50
2023-02-02T06:36:27.662Z,18.87
2023-02-02T06:38:57.465Z,14.33
2023-02-02T06:41:24.792Z,23.57
2023-02-02T06:43:52.882Z,27.20
2023-02-02T06:46:19.704Z,30.70
2023-02-02T06:48:46.553Z,28.70
2023-02-02T06:51:13.425Z,31.07
2023-02-02T06:53:40.175Z,25.50
2023-02-02T06:56:12.224Z,28.00
2023-02-02T06:58:39.604Z,34.30
2023-02-02T07:01:10.682Z,24.93
2023-02-02T07:03:38.039Z,32.77
2023-02-02T07:06:24.966Z,32.77
2023-02-02T07:09:01.870Z,32.40
2023-02-02T07:11:35.345Z,30.80
2023-02-02T07:14:05.089Z,34.13
2023-02-02T07:16:32.356Z,30.30
2023-02-02T07:18:59.181Z,19.47
2023-02-02T07:21:35.469Z,26.27
2023-02-02T07:24:04.573Z,20.07
2023-02-02T07:26:31.765Z,30.83
2023-02-02T07:28:58.888Z,27.10
2023-02-02T07:31:27.100Z,28.67
2023-02-02T07:33:54.824Z,26.10
2023-02-02T07:36:24.287Z,21.57
2023-02-02T07:38:54.402Z,22.57
2023-02-02T07:41:22.651Z,29.00
2023-02-02T07:43:50.363Z,22.27
2023-02-02T07:46:18.881Z,22.87
2023-02-02T07:48:45.967Z,25.33
2023-02-02T07:51:17.388Z,26.53
2023-02-02T07:53:47.104Z,25.60
2023-02-02T07:56:21.459Z,21.47
2023-02-02T07:58:48.695Z,25.73
2023-02-02T08:01:16.946Z,23.60
2023-02-02T08:03:44.565Z,28.57
2023-02-02T08:06:36.740Z,19.17
2023-02-02T08:09:10.611Z,22.00
2023-02-02T08:11:39.045Z,22.57
2023-02-02T08:14:07.256Z,21.83
2023-02-02T08:16:34.997Z,21.90
2023-02-02T08:19:02.564Z,29.13
2023-02-02T08:21:29.485Z,11.23
2023-02-02T08:23:56.578Z,27.27
2023-02-02T08:26:28.241Z,18.37
2023-02-02T08:29:09.030Z,24.43
2023-02-02T08:31:41.946Z,27.53
2023-02-02T08:34:09.336Z,24.57
2023-02-02T08:36:36.660Z,24.47
2023-02-02T08:39:12.011Z,20.90
2023-02-02T08:41:39.342Z,25.63
2023-02-02T08:44:14.193Z,17.50
2023-02-02T08:46:42.121Z,19.67
2023-02-02T08:49:13.423Z,24.77
2023-02-02T08:51:41.888Z,21.10
2023-02-02T08:54:08.857Z,17.63
2023-02-02T08:56:35.722Z,25.70
2023-02-02T08:59:05.864Z,15.80
2023-02-02T09:01:34.502Z,15.77
2023-02-02T09:04:08.621Z,19.67
2023-02-02T09:06:40.704Z,18.23
2023-02-02T09:09:12.386Z,22.97
2023-02-02T09:11:39.725Z,21.80
2023-02-02T09:14:07.897Z,16.07
2023-02-02T09:16:36.028Z,18.40
2023-02-02T09:19:04.064Z,14.03
2023-02-02T09:21:30.978Z,15.93
2023-02-02T09:23:57.836Z,12.07
2023-02-02T09:26:29.727Z,12.73
2023-02-02T09:29:03.688Z,11.67
2023-02-02T09:31:35.009Z,14.60
2023-02-02T09:34:09.098Z,12.40
2023-02-02T09:36:37.166Z,13.23
2023-02-02T09:39:05.939Z,11.20
2023-02-02T09:41:38.633Z,14.90
2023-02-02T09:44:50.457Z,12.60
2023-02-02T09:47:48.979Z,5.73
2023-02-02T09:50:34.398Z,11.57
2023-02-02T09:53:26.405Z,10.83
2023-02-02T09:56:00.393Z,8.90
2023-02-02T09:59:19.317Z,8.90
2023-02-02T10:01:55.575Z,10.43
2023-02-02T10:04:37.024Z,6.07
2023-02-02T10:07:19.008Z,9.87
2023-02-02T10:09:59.628Z,9.53
2023-02-02T10:13:19.022Z,11.77
2023-02-02T10:15:56.683Z,14.83
2023-02-02T10:18:47.620Z,7.87
2023-02-02T10:21:32.419Z,8.90
2023-02-02T10:24:01.908Z,10.43
2023-02-02T10:26:43.612Z,9.33
2023-02-02T10:29:22.583Z,10.33
2023-02-02T10:32:11.250Z,8.33
2023-02-02T10:35:12.687Z,8.83
2023-02-02T10:38:20.092Z,9.90
2023-02-02T10:41:20.143Z,7.87
2023-02-02T10:44:24.497Z,7.70
2023-02-02T10:46:56.797Z,9.87
2023-02-02T10:49:38.755Z,8.43
2023-02-02T10:52:11.464Z,10.13
2023-02-02T10:55:15.728Z,8.87
2023-02-02T10:57:54.860Z,6.23
2023-02-02T11:00:36.733Z,8.23
2023-02-02T11:03:05.081Z,7.87
2023-02-02T11:05:50.769Z,6.37
2023-02-02T11:08:22.326Z,6.27
2023-02-02T11:10:55.887Z,6.13
2023-02-02T11:13:37.877Z,7.97
2023-02-02T11:16:16.913Z,6.57
2023-02-02T11:18:44.935Z,6.43
2023-02-02T11:21:40.999Z,7.37
2023-02-02T11:24:36.530Z,7.00
2023-02-02T11:27:15.383Z,6.87
2023-02-02T11:29:53.481Z,12.40
2023-02-02T11:32:29.717Z,13.87
2023-02-02T11:35:02.286Z,12.07
2023-02-02T11:37:53.673Z,7.47
2023-02-02T11:40:29.255Z,9.60
2023-02-02T11:43:00.678Z,14.33
2023-02-02T11:45:40.790Z,13.67
2023-02-02T11:48:20.073Z,11.80
2023-02-02T11:51:00.125Z,15.13
2023-02-02T11:53:30.159Z,16.13
2023-02-02T11:56:08.655Z,17.77
2023-02-02T11:58:59.547Z,15.40
2023-02-02T12:01:32.138Z,26.43
2023-02-02T12:04:19.119Z,22.00
2023-02-02T12:06:45.915Z,22.40
2023-02-02T12:09:22.102Z,17.67
2023-02-02T12:12:25.328Z,19.10
2023-02-02T12:15:45.305Z,17.33
2023-02-02T12:18:58.655Z,21.17
2023-02-02T12:21:53.730Z,21.30
2023-02-02T12:24:41.526Z,23.10
2023-02-02T12:27:21.100Z,27.90
2023-02-02T12:30:14.880Z,21.27
2023-02-02T12:32:54.721Z,17.70
2023-02-02T12:35:42.588Z,27.57
2023-02-02T12:38:44.573Z,24.77
2023-02-02T12:41:25.354Z,27.97
2023-02-02T12:44:18.518Z,25.60
2023-02-02T12:47:15.310Z,20.63
2023-02-02T12:50:35.280Z,24.33
2023-02-02T12:53:44.692Z,28.37
2023-02-02T12:56:51.995Z,28.83
2023-02-02T12:59:37.336Z,29.10
2023-02-02T13:02:44.517Z,23.73
2023-02-02T13:05:56.817Z,25.27
2023-02-02T13:09:06.343Z,32.30
2023-02-02T13:11:42.384Z,24.50
2023-02-02T13:14:34.339Z,26.73
2023-02-02T13:17:11.709Z,28.30
2023-02-02T13:19:42.128Z,29.53
2023-02-02T13:22:26.910Z,25.63
2023-02-02T13:25:01.155Z,28.13
2023-02-02T13:27:30.716Z,19.97
2023-02-02T13:30:25.133Z,29.33
2023-02-02T13:32:54.667Z,25.77
2023-02-02T13:35:44.950Z,19.80
2023-02-02T13:38:30.556Z,18.97
2023-02-02T13:41:05.909Z,23.47
2023-02-02T13:43:50.379Z,18.30
2023-02-02T13:46:40.757Z,19.93
2023-02-02T13:49:30.640Z,21.37
2023-02-02T13:52:41.401Z,26.70
2023-02-02T13:55:35.164Z,20.93
2023-02-02T13:58:29.153Z,23.03
2023-02-02T14:01:11.193Z,19.70
2023-02-02T14:03:41.517Z,20.93
2023-02-02T14:06:17.457Z,17.67
2023-02-02T14:08:55.353Z,19.10
2023-02-02T14:11:32.182Z,23.03
2023-02-02T14:14:38.845Z,24.90
2023-02-02T14:17:13.008Z,27.63
2023-02-02T14:19:41.963Z,23.53
2023-02-02T14:22:12.102Z,21.70
2023-02-02T14:24:43.986Z,25.90
2023-02-02T14:27:10.866Z,22.57
2023-02-02T14:29:58.787Z,23.93
2023-02-02T14:32:27.675Z,24.27
2023-02-02T14:34:58.107Z,24.27
2023-02-02T14:37:24.932Z,23.53
2023-02-02T14:40:06.988Z,23.50
2023-02-02T14:43:08.524Z,21.23
2023-02-02T14:45:43.411Z,26.57
2023-02-02T14:48:14.776Z,30.47
2023-02-02T14:50:47.064Z,21.03
2023-02-02T14:53:22.220Z,25.00
2023-02-02T14:56:10.559Z,27.40
2023-02-02T14:58:46.735Z,30.37
2023-02-02T15:01:25.236Z,23.40
2023-02-02T15:04:21.400Z,23.10
2023-02-02T15:06:52.467Z,23.33
2023-02-02T15:09:28.407Z,25.13
2023-02-02T15:12:06.636Z,27.60
2023-02-02T15:14:38.804Z,22.27
2023-02-02T15:17:20.753Z,22.97
2023-02-02T15:20:08.634Z,25.80
2023-02-02T15:22:51.284Z,23.43
2023-02-02T15:25:31.102Z,20.83
2023-02-02T15:28:19.557Z,28.00
2023-02-02T15:30:56.679Z,22.90
2023-02-02T15:33:43.978Z,29.27
2023-02-02T15:36:21.896Z,21.57
2023-02-02T15:38:53.756Z,30.27
2023-02-02T15:41:40.882Z,31.80
2023-02-02T15:44:29.857Z,31.87
2023-02-02T15:46:58.081Z,37.03
2023-02-02T15:49:35.807Z,38.40
2023-02-02T15:52:25.241Z,37.03
2023-02-02T15:55:01.958Z,46.63
2023-02-02T15:57:35.841Z,18.20
2023-02-02T16:00:22.849Z,40.20
2023-02-02T16:03:07.497Z,45.63
2023-02-02T16:05:37.236Z,33.80
2023-02-02T16:08:15.368Z,44.37
2023-02-02T16:10:42.241Z,42.10
2023-02-02T16:13:28.487Z,35.93
2023-02-02T16:16:01.560Z,39.10
2023-02-02T16:18:30.267Z,39.07
2023-02-02T16:21:03.379Z,39.83
2023-02-02T16:23:35.051Z,39.93
2023-02-02T16:26:06.028Z,35.90
2023-02-02T16:28:34.105Z,41.30
2023-02-02T16:31:02.825Z,35.70
2023-02-02T16:33:35.596Z,34.40
2023-02-02T16:36:25.748Z,40.43
2023-02-02T16:38:55.023Z,38.87
2023-02-02T16:41:34.292Z,42.47
2023-02-02T16:44:43.803Z,40.17
2023-02-02T16:47:25.859Z,38.63
2023-02-02T16:50:26.208Z,40.50
2023-02-02T16:53:03.915Z,41.90
2023-02-02T16:55:49.362Z,30.83
2023-02-02T16:58:24.015Z,39.63
2023-02-02T17:01:15.977Z,35.47
2023-02-02T17:03:55.528Z,30.47
2023-02-02T17:06:45.877Z,28.00
2023-02-02T17:09:37.420Z,29.23
2023-02-02T17:12:32.167Z,22.23
2023-02-02T17:15:16.857Z,26.43
2023-02-02T17:17:48.350Z,24.57
2023-02-02T17:20:20.121Z,25.23
2023-02-02T17:22:51.993Z,25.37
2023-02-02T17:25:28.554Z,23.30
2023-02-02T17:27:58.475Z,21.90
2023-02-02T17:30:26.369Z,18.83
2023-02-02T17:32:53.170Z,24.90
2023-02-02T17:35:27.420Z,21.47
2023-02-02T17:37:55.146Z,19.00
2023-02-02T17:40:24.232Z,24.23
2023-02-02T17:42:53.359Z,23.07
2023-02-02T17:45:30.624Z,25.47
2023-02-02T17:47:59.809Z,16.87
2023-02-02T17:50:28.432Z,19.80
2023-02-02T17:52:55.860Z,20.53
2023-02-02T17:55:27.769Z,27.03
2023-02-02T17:57:55.309Z,19.73
2023-02-02T18:00:26.336Z,20.83
2023-02-02T18:03:24.983Z,22.13
2023-02-02T18:05:52.291Z,18.13
2023-02-02T18:08:19.216Z,21.30
2023-02-02T18:10:46.199Z,21.30
2023-02-02T18:13:19.737Z,20.40
2023-02-02T18:15:48.458Z,22.00
2023-02-02T18:18:15.546Z,11.00
2023-02-02T18:20:48.433Z,16.40
2023-02-02T18:23:17.469Z,22.23
2023-02-02T18:25:44.589Z,20.20
2023-02-02T18:28:11.755Z,21.13
2023-02-02T18:30:40.531Z,18.87
2023-02-02T18:33:10.051Z,12.20
2023-02-02T18:35:47.524Z,19.10
2023-02-02T18:38:14.840Z,21.60
2023-02-02T18:40:42.163Z,23.27
2023-02-02T18:43:09.338Z,18.70
2023-02-02T18:45:36.509Z,24.97
2023-02-02T18:48:03.658Z,23.77
2023-02-02T18:50:30.485Z,24.07
2023-02-02T18:52:57.262Z,26.43
2023-02-02T18:55:24.518Z,29.33
2023-02-02T18:57:51.650Z,21.93
2023-02-02T19:00:19.351Z,28.17
2023-02-02T19:02:46.174Z,22.50
2023-02-02T19:05:31.498Z,23.30
2023-02-02T19:07:59.067Z,24.87
2023-02-02T19:10:27.478Z,17.33
2023-02-02T19:13:03.250Z,17.93
2023-02-02T19:15:36.503Z,19.60
2023-02-02T19:18:13.588Z,23.60
2023-02-02T19:20:41.231Z,20.67
2023-02-02T19:23:14.920Z,20.00
2023-02-02T19:25:46.375Z,19.07
2023-02-02T19:28:28.256Z,22.73
2023-02-02T19:30:59.164Z,20.27
2023-02-02T19:33:49.348Z,20.90
2023-02-02T19:36:27.461Z,18.23
2023-02-02T19:39:08.063Z,16.70
2023-02-02T19:41:36.889Z,16.50
2023-02-02T19:44:16.727Z,16.73
2023-02-02T19:46:47.322Z,14.90
2023-02-02T19:49:32.870Z,17.50
2023-02-02T19:52:03.623Z,15.43
2023-02-02T19:54:39.168Z,14.40
2023-02-02T19:57:41.838Z,11.23
2023-02-02T20:00:27.839Z,13.57
2023-02-02T20:03:05.650Z,16.90
2023-02-02T20:05:53.208Z,13.27
2023-02-02T20:08:39.114Z,11.40
2023-02-02T20:11:23.796Z,12.43
2023-02-02T20:13:51.830Z,13.03
2023-02-02T20:16:21.899Z,16.50
2023-02-02T20:18:55.520Z,15.17
2023-02-02T20:21:40.963Z,23.23
2023-02-02T20:24:40.225Z,29.63
2023-02-02T20:27:23.876Z,35.57
2023-02-02T20:29:53.859Z,40.70
2023-02-02T20:32:40.838Z,47.03
2023-02-02T20:35:42.612Z,44.60
2023-02-02T20:38:23.742Z,51.10
2023-02-02T20:40:52.076Z,55.40
2023-02-02T20:43:19.095Z,56.80
2023-02-02T20:45:46.388Z,53.07
2023-02-02T20:48:15.183Z,55.67
2023-02-02T20:50:43.237Z,64.80
2023-02-02T20:53:10.627Z,65.80
2023-02-02T20:55:37.488Z,67.73
2023-02-02T20:58:05.123Z,60.23
2023-02-02T21:00:32.386Z,63.50
2023-02-02T21:02:59.154Z,63.17
2023-02-02T21:05:26.133Z,53.60
2023-02-02T21:07:56.655Z,56.07
2023-02-02T21:10:26.244Z,44.73
2023-02-02T21:12:53.281Z,54.27
2023-02-02T21:15:20.191Z,50.87
2023-02-02T21:17:47.033Z,54.00
2023-02-02T21:20:14.868Z,52.50
2023-02-02T21:22:42.183Z,47.63
2023-02-02T21:25:10.528Z,53.10
2023-02-02T21:27:41.105Z,48.53
2023-02-02T21:30:13.816Z,37.57
2023-02-02T21:32:40.595Z,49.40
2023-02-02T21:35:07.636Z,42.83
2023-02-02T21:37:37.696Z,40.03
2023-02-02T21:40:14.443Z,35.00
2023-02-02T21:42:49.394Z,30.93
2023-02-02T21:45:35.434Z,29.00
2023-02-02T21:48:26.540Z,30.83
2023-02-02T21:50:53.310Z,36.50
2023-02-02T21:53:25.750Z,39.10
2023-02-02T21:56:00.269Z,42.70
2023-02-02T21:58:35.808Z,45.30
2023-02-02T22:01:40.117Z,47.03
2023-02-02T22:04:21.820Z,48.87
2023-02-02T22:07:15.164Z,43.10
2023-02-02T22:09:45.675Z,45.83
2023-02-02T22:12:20.875Z,39.10
2023-02-02T22:14:50.934Z,43.03
2023-02-02T22:17:27.402Z,42.93
2023-02-02T22:20:29.937Z,37.20
2023-02-02T22:22:56.743Z,30.70
2023-02-02T22:25:37.046Z,38.30
2023-02-02T22:28:22.458Z,44.47
2023-02-02T22:30:52.457Z,47.47
2023-02-02T22:33:20.365Z,48.00
2023-02-02T22:35:47.412Z,40.23
2023-02-02T22:38:20.396Z,42.87
2023-02-02T22:40:49.290Z,45.90
2023-02-02T22:43:17.774Z,47.90
2023-02-02T22:45:45.987Z,39.63
2023-02-02T22:48:14.955Z,40.87
2023-02-02T22:50:45.116Z,36.37
2023-02-02T22:53:13.919Z,26.87
2023-02-02T22:55:41.030Z,37.63
2023-02-02T22:58:07.801Z,28.93
2023-02-02T23:00:34.626Z,34.60
2023-02-02T23:03:01.514Z,41.90
2023-02-02T23:05:28.673Z,35.67
2023-02-02T23:07:56.335Z,41.23
2023-02-02T23:10:27.450Z,38.90
2023-02-02T23:12:57.671Z,41.30
2023-02-02T23:15:24.755Z,46.20
2023-02-02T23:17:51.915Z,42.03
2023-02-02T23:20:19.470Z,41.63
2023-02-02T23:22:46.520Z,43.10
2023-02-02T23:25:14.400Z,44.57
2023-02-02T23:27:42.168Z,41.53
2023-02-02T23:30:12.491Z,40.30
2023-02-02T23:32:39.586Z,39.50
2023-02-02T23:35:10.364Z,41.80
2023-02-02T23:37:37.932Z,36.37
2023-02-02T23:40:05.456Z,34.40
2023-02-02T23:42:32.385Z,35.37
2023-02-02T23:44:59.307Z,41.57
2023-02-02T23:47:26.444Z,33.97
2023-02-02T23:49:53.502Z,37.37
2023-02-02T23:52:20.652Z,40.20
2023-02-02T23:54:47.672Z,32.83
2023-02-02T23:57:14.466Z,32.80
2023-02-02T23:59:41.208Z,43.20
